sensor_id;sensor_type;location;lat;lon;timestamp;pressure;altitude;pressure_sealevel;temperature
70969;BMP280;58630;43.022;25.100;2023-03-04T00:01:57;99471.25;;;10.65
70969;BMP280;58630;43.022;25.100;2023-03-04T00:04:22;99460.88;;;10.65
70969;BMP280;58630;43.022;25.100;2023-03-04T00:06:48;99460.09;;;10.64
70969;BMP280;58630;43.022;25.100;2023-03-04T00:09:13;99455.13;;;10.63
70969;BMP280;58630;43.022;25.100;2023-03-04T00:11:38;99452.53;;;10.63
70969;BMP280;58630;43.022;25.100;2023-03-04T00:14:03;99457.72;;;10.63
70969;BMP280;58630;43.022;25.100;2023-03-04T00:16:29;99449.94;;;10.63
70969;BMP280;58630;43.022;25.100;2023-03-04T00:18:55;99458.00;;;10.61
70969;BMP280;58630;43.022;25.100;2023-03-04T00:21:20;99451.78;;;10.62
70969;BMP280;58630;43.022;25.100;2023-03-04T00:23:46;99449.44;;;10.61
70969;BMP280;58630;43.022;25.100;2023-03-04T00:26:11;99444.00;;;10.62
70969;BMP280;58630;43.022;25.100;2023-03-04T00:28:37;99447.84;;;10.60
70969;BMP280;58630;43.022;25.100;2023-03-04T00:31:04;99447.63;;;10.61
70969;BMP280;58630;43.022;25.100;2023-03-04T00:33:29;99454.63;;;10.61
70969;BMP280;58630;43.022;25.100;2023-03-04T00:35:54;99462.69;;;10.59
70969;BMP280;58630;43.022;25.100;2023-03-04T00:38:20;99455.66;;;10.60
70969;BMP280;58630;43.022;25.100;2023-03-04T00:40:45;99451.47;;;10.59
70969;BMP280;58630;43.022;25.100;2023-03-04T00:43:10;99448.88;;;10.59
70969;BMP280;58630;43.022;25.100;2023-03-04T00:45:35;99446.28;;;10.59
70969;BMP280;58630;43.022;25.100;2023-03-04T00:48:01;99447.84;;;10.60
70969;BMP280;58630;43.022;25.100;2023-03-04T00:50:26;99440.88;;;10.60
70969;BMP280;58630;43.022;25.100;2023-03-04T00:52:51;99448.88;;;10.59
70969;BMP280;58630;43.022;25.100;2023-03-04T00:55:17;99438.50;;;10.59
70969;BMP280;58630;43.022;25.100;2023-03-04T00:57:42;99435.13;;;10.58
70969;BMP280;58630;43.022;25.100;2023-03-04T01:00:07;99443.94;;;10.57
70969;BMP280;58630;43.022;25.100;2023-03-04T01:02:33;99441.34;;;10.57
70969;BMP280;58630;43.022;25.100;2023-03-04T01:04:58;99447.31;;;10.58
70969;BMP280;58630;43.022;25.100;2023-03-04T01:07:23;99440.56;;;10.57
70969;BMP280;58630;43.022;25.100;2023-03-04T01:09:49;99455.13;;;10.58
70969;BMP280;58630;43.022;25.100;2023-03-04T01:12:14;99444.97;;;10.56
70969;BMP280;58630;43.022;25.100;2023-03-04T01:14:39;99442.38;;;10.56
70969;BMP280;58630;43.022;25.100;2023-03-04T01:17:04;99453.53;;;10.57
70969;BMP280;58630;43.022;25.100;2023-03-04T01:19:30;99449.16;;;10.57
70969;BMP280;58630;43.022;25.100;2023-03-04T01:21:55;99444.19;;;10.56
70969;BMP280;58630;43.022;25.100;2023-03-04T01:24:20;99450.94;;;10.57
70969;BMP280;58630;43.022;25.100;2023-03-04T01:26:45;99449.91;;;10.58
70969;BMP280;58630;43.022;25.100;2023-03-04T01:29:11;99450.94;;;10.57
70969;BMP280;58630;43.022;25.100;2023-03-04T01:31:36;99444.97;;;10.56
70969;BMP280;58630;43.022;25.100;2023-03-04T01:34:02;99445.22;;;10.55
70969;BMP280;58630;43.022;25.100;2023-03-04T01:36:27;99453.00;;;10.55
70969;BMP280;58630;43.022;25.100;2023-03-04T01:38:52;99449.38;;;10.56
70969;BMP280;58630;43.022;25.100;2023-03-04T01:41:18;99445.22;;;10.55
70969;BMP280;58630;43.022;25.100;2023-03-04T01:43:46;99447.81;;;10.55
70969;BMP280;58630;43.022;25.100;2023-03-04T01:46:11;99443.69;;;10.54
70969;BMP280;58630;43.022;25.100;2023-03-04T01:48:39;99447.03;;;10.54
70969;BMP280;58630;43.022;25.100;2023-03-04T01:51:05;99438.47;;;10.54
70969;BMP280;58630;43.022;25.100;2023-03-04T01:53:31;99435.34;;;10.52
70969;BMP280;58630;43.022;25.100;2023-03-04T01:55:59;99441.06;;;10.54
70969;BMP280;58630;43.022;25.100;2023-03-04T01:58:27;99431.44;;;10.54
70969;BMP280;58630;43.022;25.100;2023-03-04T02:00:53;99432.22;;;10.55
70969;BMP280;58630;43.022;25.100;2023-03-04T02:03:19;99428.09;;;10.54
70969;BMP280;58630;43.022;25.100;2023-03-04T02:05:46;99422.88;;;10.54
70969;BMP280;58630;43.022;25.100;2023-03-04T02:08:12;99438.47;;;10.54
70969;BMP280;58630;43.022;25.100;2023-03-04T02:10:38;99438.75;;;10.52
70969;BMP280;58630;43.022;25.100;2023-03-04T02:13:04;99430.16;;;10.52
70969;BMP280;58630;43.022;25.100;2023-03-04T02:15:29;99426.53;;;10.53
70969;BMP280;58630;43.022;25.100;2023-03-04T02:17:55;99424.94;;;10.52
70969;BMP280;58630;43.022;25.100;2023-03-04T02:25:25;99430.94;;;10.52
70969;BMP280;58630;43.022;25.100;2023-03-04T02:27:52;99430.16;;;10.52
70969;BMP280;58630;43.022;25.100;2023-03-04T02:30:19;99430.16;;;10.52
70969;BMP280;58630;43.022;25.100;2023-03-04T02:32:44;99427.56;;;10.52
70969;BMP280;58630;43.022;25.100;2023-03-04T02:35:13;99425.22;;;10.50
70969;BMP280;58630;43.022;25.100;2023-03-04T02:37:40;99426.78;;;10.51
70969;BMP280;58630;43.022;25.100;2023-03-04T02:40:05;99431.19;;;10.51
70969;BMP280;58630;43.022;25.100;2023-03-04T02:42:33;99427.81;;;10.50
70969;BMP280;58630;43.022;25.100;2023-03-04T02:44:58;99420.56;;;10.52
70969;BMP280;58630;43.022;25.100;2023-03-04T02:47:24;99424.19;;;10.51
70969;BMP280;58630;43.022;25.100;2023-03-04T02:49:49;99421.59;;;10.51
70969;BMP280;58630;43.022;25.100;2023-03-04T02:52:21;99424.44;;;10.50
70969;BMP280;58630;43.022;25.100;2023-03-04T02:54:46;99416.66;;;10.50
70969;BMP280;58630;43.022;25.100;2023-03-04T02:57:12;99412.22;;;10.50
70969;BMP280;58630;43.022;25.100;2023-03-04T02:59:38;99416.66;;;10.50
70969;BMP280;58630;43.022;25.100;2023-03-04T03:02:04;99420.28;;;10.49
70969;BMP280;58630;43.022;25.100;2023-03-04T03:04:29;99422.63;;;10.50
70969;BMP280;58630;43.022;25.100;2023-03-04T03:06:54;99416.66;;;10.50
70969;BMP280;58630;43.022;25.100;2023-03-04T03:09:20;99418.44;;;10.49
70969;BMP280;58630;43.022;25.100;2023-03-04T03:11:45;99421.84;;;10.50
70969;BMP280;58630;43.022;25.100;2023-03-04T03:14:10;99429.09;;;10.48
70969;BMP280;58630;43.022;25.100;2023-03-04T03:16:36;99430.66;;;10.49
70969;BMP280;58630;43.022;25.100;2023-03-04T03:19:01;99435.88;;;10.49
70969;BMP280;58630;43.022;25.100;2023-03-04T03:21:27;99430.66;;;10.49
70969;BMP280;58630;43.022;25.100;2023-03-04T03:23:52;99430.66;;;10.49
70969;BMP280;58630;43.022;25.100;2023-03-04T03:26:17;99434.31;;;10.48
70969;BMP280;58630;43.022;25.100;2023-03-04T03:28:43;99439.50;;;10.48
70969;BMP280;58630;43.022;25.100;2023-03-04T03:31:08;99432.47;;;10.48
70969;BMP280;58630;43.022;25.100;2023-03-04T03:33:34;99434.56;;;10.46
70969;BMP280;58630;43.022;25.100;2023-03-04T03:35:59;99425.69;;;10.47
70969;BMP280;58630;43.022;25.100;2023-03-04T03:38:25;99441.28;;;10.47
70969;BMP280;58630;43.022;25.100;2023-03-04T03:40:50;99428.31;;;10.47
70969;BMP280;58630;43.022;25.100;2023-03-04T03:43:16;99430.13;;;10.47
70969;BMP280;58630;43.022;25.100;2023-03-04T03:45:41;99437.91;;;10.47
70969;BMP280;58630;43.022;25.100;2023-03-04T03:48:06;99426.75;;;10.46
70969;BMP280;58630;43.022;25.100;2023-03-04T03:50:32;99427.53;;;10.47
70969;BMP280;58630;43.022;25.100;2023-03-04T03:52:57;99426.75;;;10.46
70969;BMP280;58630;43.022;25.100;2023-03-04T03:55:23;99417.13;;;10.47
70969;BMP280;58630;43.022;25.100;2023-03-04T03:57:48;99424.16;;;10.46
70969;BMP280;58630;43.022;25.100;2023-03-04T04:00:14;99426.00;;;10.46
70969;BMP280;58630;43.022;25.100;2023-03-04T04:02:40;99421.56;;;10.46
70969;BMP280;58630;43.022;25.100;2023-03-04T04:05:06;99428.59;;;10.46
70969;BMP280;58630;43.022;25.100;2023-03-04T04:07:32;99436.38;;;10.46
70969;BMP280;58630;43.022;25.100;2023-03-04T04:09:57;99436.38;;;10.46
70969;BMP280;58630;43.022;25.100;2023-03-04T04:12:22;99441.59;;;10.46
70969;BMP280;58630;43.022;25.100;2023-03-04T04:14:48;99434.81;;;10.45
70969;BMP280;58630;43.022;25.100;2023-03-04T04:17:13;99435.06;;;10.43
70969;BMP280;58630;43.022;25.100;2023-03-04T04:19:39;99433.25;;;10.44
70969;BMP280;58630;43.022;25.100;2023-03-04T04:22:05;99428.06;;;10.44
70969;BMP280;58630;43.022;25.100;2023-03-04T04:24:30;99429.63;;;10.45
70969;BMP280;58630;43.022;25.100;2023-03-04T04:26:55;99428.81;;;10.44
70969;BMP280;58630;43.022;25.100;2023-03-04T04:29:22;99428.06;;;10.44
70969;BMP280;58630;43.022;25.100;2023-03-04T04:31:47;99424.66;;;10.43
70969;BMP280;58630;43.022;25.100;2023-03-04T04:34:12;99420.25;;;10.44
70969;BMP280;58630;43.022;25.100;2023-03-04T04:36:37;99421.84;;;10.45
70969;BMP280;58630;43.022;25.100;2023-03-04T04:39:03;99417.66;;;10.44
70969;BMP280;58630;43.022;25.100;2023-03-04T04:41:30;99428.06;;;10.44
70969;BMP280;58630;43.022;25.100;2023-03-04T04:43:56;99423.09;;;10.42
70969;BMP280;58630;43.022;25.100;2023-03-04T04:46:22;99420.25;;;10.44
70969;BMP280;58630;43.022;25.100;2023-03-04T04:48:47;99421.84;;;10.45
70969;BMP280;58630;43.022;25.100;2023-03-04T04:51:12;99424.91;;;10.42
70969;BMP280;58630;43.022;25.100;2023-03-04T04:53:38;99430.13;;;10.42
70969;BMP280;58630;43.022;25.100;2023-03-04T04:56:10;99431.69;;;10.43
70969;BMP280;58630;43.022;25.100;2023-03-04T04:58:36;99426.50;;;10.43
70969;BMP280;58630;43.022;25.100;2023-03-04T05:01:01;99424.91;;;10.42
70969;BMP280;58630;43.022;25.100;2023-03-04T05:03:27;99436.88;;;10.43
70969;BMP280;58630;43.022;25.100;2023-03-04T05:05:52;99435.31;;;10.42
70969;BMP280;58630;43.022;25.100;2023-03-04T05:08:17;99439.47;;;10.43
70969;BMP280;58630;43.022;25.100;2023-03-04T05:10:42;99440.50;;;10.42
70969;BMP280;58630;43.022;25.100;2023-03-04T05:13:08;99444.91;;;10.41
70969;BMP280;58630;43.022;25.100;2023-03-04T05:15:33;99444.91;;;10.41
70969;BMP280;58630;43.022;25.100;2023-03-04T05:17:58;99450.91;;;10.42
70969;BMP280;58630;43.022;25.100;2023-03-04T05:20:23;99458.69;;;10.42
70969;BMP280;58630;43.022;25.100;2023-03-04T05:22:49;99457.66;;;10.43
70969;BMP280;58630;43.022;25.100;2023-03-04T05:25:15;99455.28;;;10.41
70969;BMP280;58630;43.022;25.100;2023-03-04T05:27:40;99454.25;;;10.42
70969;BMP280;58630;43.022;25.100;2023-03-04T05:30:05;99460.50;;;10.41
70969;BMP280;58630;43.022;25.100;2023-03-04T05:32:31;99464.91;;;10.41
70969;BMP280;58630;43.022;25.100;2023-03-04T05:34:56;99471.69;;;10.42
70969;BMP280;58630;43.022;25.100;2023-03-04T05:37:21;99463.88;;;10.42
70969;BMP280;58630;43.022;25.100;2023-03-04T05:39:46;99470.09;;;10.41
70969;BMP280;58630;43.022;25.100;2023-03-04T05:42:12;99466.47;;;10.42
70969;BMP280;58630;43.022;25.100;2023-03-04T05:44:37;99468.28;;;10.41
70969;BMP280;58630;43.022;25.100;2023-03-04T05:47:02;99469.06;;;10.42
70969;BMP280;58630;43.022;25.100;2023-03-04T05:49:28;99469.06;;;10.42
70969;BMP280;58630;43.022;25.100;2023-03-04T05:51:53;99469.06;;;10.42
70969;BMP280;58630;43.022;25.100;2023-03-04T05:54:18;99464.91;;;10.41
70969;BMP280;58630;43.022;25.100;2023-03-04T05:56:44;99464.91;;;10.41
70969;BMP280;58630;43.022;25.100;2023-03-04T05:59:09;99467.25;;;10.42
70969;BMP280;58630;43.022;25.100;2023-03-04T06:01:34;99470.66;;;10.43
70969;BMP280;58630;43.022;25.100;2023-03-04T06:03:59;99461.28;;;10.42
70969;BMP280;58630;43.022;25.100;2023-03-04T06:06:25;99465.44;;;10.43
70969;BMP280;58630;43.022;25.100;2023-03-04T06:08:50;99465.44;;;10.43
70969;BMP280;58630;43.022;25.100;2023-03-04T06:11:15;99468.06;;;10.43
70969;BMP280;58630;43.022;25.100;2023-03-04T06:13:41;99464.41;;;10.44
70969;BMP280;58630;43.022;25.100;2023-03-04T06:16:06;99458.44;;;10.43
70969;BMP280;58630;43.022;25.100;2023-03-04T06:18:31;99456.63;;;10.44
70969;BMP280;58630;43.022;25.100;2023-03-04T06:20:57;99454.03;;;10.44
70969;BMP280;58630;43.022;25.100;2023-03-04T06:23:23;99466.75;;;10.45
70969;BMP280;58630;43.022;25.100;2023-03-04T06:25:52;99458.19;;;10.45
70969;BMP280;58630;43.022;25.100;2023-03-04T06:28:17;99466.75;;;10.45
70969;BMP280;58630;43.022;25.100;2023-03-04T06:30:43;99460.78;;;10.45
70969;BMP280;58630;43.022;25.100;2023-03-04T06:33:08;99457.94;;;10.46
70969;BMP280;58630;43.022;25.100;2023-03-04T06:35:33;99460.53;;;10.46
70969;BMP280;58630;43.022;25.100;2023-03-04T06:37:58;99458.69;;;10.47
70969;BMP280;58630;43.022;25.100;2023-03-04T06:40:24;99461.03;;;10.48
70969;BMP280;58630;43.022;25.100;2023-03-04T06:42:49;99459.25;;;10.49
70969;BMP280;58630;43.022;25.100;2023-03-04T06:45:14;99462.63;;;10.49
70969;BMP280;58630;43.022;25.100;2023-03-04T06:47:40;99464.94;;;10.51
70969;BMP280;58630;43.022;25.100;2023-03-04T06:50:05;99461.31;;;10.52
70969;BMP280;58630;43.022;25.100;2023-03-04T06:52:30;99458.72;;;10.52
70969;BMP280;58630;43.022;25.100;2023-03-04T06:54:56;99462.88;;;10.53
70969;BMP280;58630;43.022;25.100;2023-03-04T06:57:21;99457.69;;;10.53
70969;BMP280;58630;43.022;25.100;2023-03-04T06:59:46;99464.47;;;10.54
70969;BMP280;58630;43.022;25.100;2023-03-04T07:02:11;99465.22;;;10.54
70969;BMP280;58630;43.022;25.100;2023-03-04T07:04:37;99467.56;;;10.56
70969;BMP280;58630;43.022;25.100;2023-03-04T07:07:02;99461.59;;;10.55
70969;BMP280;58630;43.022;25.100;2023-03-04T07:09:28;99474.34;;;10.57
70969;BMP280;58630;43.022;25.100;2023-03-04T07:11:53;99473.56;;;10.56
70969;BMP280;58630;43.022;25.100;2023-03-04T07:14:18;99470.69;;;10.58
70969;BMP280;58630;43.022;25.100;2023-03-04T07:16:43;99475.91;;;10.58
70969;BMP280;58630;43.022;25.100;2023-03-04T07:19:09;99472.28;;;10.59
70969;BMP280;58630;43.022;25.100;2023-03-04T07:21:34;99471.25;;;10.60
70969;BMP280;58630;43.022;25.100;2023-03-04T07:23:59;99469.44;;;10.60
70969;BMP280;58630;43.022;25.100;2023-03-04T07:26:25;99473.31;;;10.63
70969;BMP280;58630;43.022;25.100;2023-03-04T07:28:50;99472.28;;;10.64
70969;BMP280;58630;43.022;25.100;2023-03-04T07:33:46;99464.00;;;10.67
70969;BMP280;58630;43.022;25.100;2023-03-04T07:36:11;99471.31;;;10.70
70969;BMP280;58630;43.022;25.100;2023-03-04T07:38:41;99472.84;;;10.71
70969;BMP280;58630;43.022;25.100;2023-03-04T07:41:06;99464.78;;;10.72
70969;BMP280;58630;43.022;25.100;2023-03-04T07:43:32;99475.97;;;10.73
70969;BMP280;58630;43.022;25.100;2023-03-04T07:45:58;99464.56;;;10.74
70969;BMP280;58630;43.022;25.100;2023-03-04T07:48:24;99462.50;;;10.76
70969;BMP280;58630;43.022;25.100;2023-03-04T07:50:49;99464.81;;;10.77
70969;BMP280;58630;43.022;25.100;2023-03-04T07:53:15;99460.94;;;10.80
70969;BMP280;58630;43.022;25.100;2023-03-04T07:55:40;99466.66;;;10.82
70969;BMP280;58630;43.022;25.100;2023-03-04T07:58:05;99460.16;;;10.84
70969;BMP280;58630;43.022;25.100;2023-03-04T08:00:30;99452.88;;;10.86
70969;BMP280;58630;43.022;25.100;2023-03-04T08:02:56;99456.56;;;10.90
70969;BMP280;58630;43.022;25.100;2023-03-04T08:05:21;99456.28;;;10.92
70969;BMP280;58630;43.022;25.100;2023-03-04T08:07:46;99453.16;;;10.95
70969;BMP280;58630;43.022;25.100;2023-03-04T08:10:12;99449.53;;;10.96
70969;BMP280;58630;43.022;25.100;2023-03-04T08:12:37;99440.69;;;10.97
70969;BMP280;58630;43.022;25.100;2023-03-04T08:15:02;99456.84;;;10.99
70969;BMP280;58630;43.022;25.100;2023-03-04T08:17:28;99440.19;;;11.00
70969;BMP280;58630;43.022;25.100;2023-03-04T08:19:54;99438.09;;;11.02
70969;BMP280;58630;43.022;25.100;2023-03-04T08:22:19;99448.25;;;11.03
70969;BMP280;58630;43.022;25.100;2023-03-04T08:24:44;99438.38;;;11.05
70969;BMP280;58630;43.022;25.100;2023-03-04T08:27:09;99438.13;;;11.07
70969;BMP280;58630;43.022;25.100;2023-03-04T08:29:35;99437.09;;;11.08
70969;BMP280;58630;43.022;25.100;2023-03-04T08:32:00;99438.38;;;11.10
70969;BMP280;58630;43.022;25.100;2023-03-04T08:34:26;99439.72;;;11.12
70969;BMP280;58630;43.022;25.100;2023-03-04T08:36:52;99435.00;;;11.14
70969;BMP280;58630;43.022;25.100;2023-03-04T08:39:17;99438.91;;;11.17
70969;BMP280;58630;43.022;25.100;2023-03-04T08:41:43;99430.84;;;11.18
70969;BMP280;58630;43.022;25.100;2023-03-04T08:44:08;99425.41;;;11.20
70969;BMP280;58630;43.022;25.100;2023-03-04T08:46:37;99432.19;;;11.21
70969;BMP280;58630;43.022;25.100;2023-03-04T08:49:03;99426.97;;;11.21
70969;BMP280;58630;43.022;25.100;2023-03-04T08:51:28;99425.94;;;11.22
70969;BMP280;58630;43.022;25.100;2023-03-04T08:53:53;99413.72;;;11.22
70969;BMP280;58630;43.022;25.100;2023-03-04T08:56:19;99418.66;;;11.24
70969;BMP280;58630;43.022;25.100;2023-03-04T08:58:44;99414.75;;;11.26
70969;BMP280;58630;43.022;25.100;2023-03-04T09:01:10;99407.47;;;11.28
70969;BMP280;58630;43.022;25.100;2023-03-04T09:03:36;99405.66;;;11.29
70969;BMP280;58630;43.022;25.100;2023-03-04T09:06:02;99402.78;;;11.30
70969;BMP280;58630;43.022;25.100;2023-03-04T09:08:27;99407.97;;;11.30
70969;BMP280;58630;43.022;25.100;2023-03-04T09:10:53;99398.09;;;11.32
70969;BMP280;58630;43.022;25.100;2023-03-04T09:13:19;99397.84;;;11.34
70969;BMP280;58630;43.022;25.100;2023-03-04T09:15:45;99400.19;;;11.35
70969;BMP280;58630;43.022;25.100;2023-03-04T09:18:11;99398.34;;;11.36
70969;BMP280;58630;43.022;25.100;2023-03-04T09:20:36;99392.13;;;11.37
70969;BMP280;58630;43.022;25.100;2023-03-04T09:23:01;99388.44;;;11.38
70969;BMP280;58630;43.022;25.100;2023-03-04T09:25:27;99384.59;;;11.40
70969;BMP280;58630;43.022;25.100;2023-03-04T09:27:52;99383.53;;;11.41
70969;BMP280;58630;43.022;25.100;2023-03-04T09:30:18;99381.47;;;11.43
70969;BMP280;58630;43.022;25.100;2023-03-04T09:32:43;99377.03;;;11.44
70969;BMP280;58630;43.022;25.100;2023-03-04T09:35:08;99370.03;;;11.44
70969;BMP280;58630;43.022;25.100;2023-03-04T09:37:34;99375.69;;;11.61
70969;BMP280;58630;43.022;25.100;2023-03-04T09:39:59;99379.06;;;11.62
70969;BMP280;58630;43.022;25.100;2023-03-04T09:42:30;99375.19;;;11.59
70969;BMP280;58630;43.022;25.100;2023-03-04T09:44:57;99370.78;;;11.60
70969;BMP280;58630;43.022;25.100;2023-03-04T09:47:22;99369.47;;;11.62
70969;BMP280;58630;43.022;25.100;2023-03-04T09:50:02;99360.34;;;11.65
70969;BMP280;58630;43.022;25.100;2023-03-04T09:52:47;99356.44;;;11.67
70969;BMP280;58630;43.022;25.100;2023-03-04T09:55:20;99355.94;;;11.70
70969;BMP280;58630;43.022;25.100;2023-03-04T10:02:50;99355.13;;;11.79
70969;BMP280;58630;43.022;25.100;2023-03-04T10:05:23;99350.94;;;11.83
70969;BMP280;58630;43.022;25.100;2023-03-04T10:08:13;99345.22;;;11.86
70969;BMP280;58630;43.022;25.100;2023-03-04T10:10:36;99345.72;;;11.88
70969;BMP280;58630;43.022;25.100;2023-03-04T10:13:03;99337.88;;;11.93
70969;BMP280;58630;43.022;25.100;2023-03-04T10:17:57;99330.81;;;12.04
70969;BMP280;58630;43.022;25.100;2023-03-04T10:20:26;99331.88;;;12.08
70969;BMP280;58630;43.022;25.100;2023-03-04T10:22:58;99317.22;;;12.12
70969;BMP280;58630;43.022;25.100;2023-03-04T10:25:27;99322.94;;;12.19
70969;BMP280;58630;43.022;25.100;2023-03-04T10:28:00;99320.09;;;12.20
70969;BMP280;58630;43.022;25.100;2023-03-04T10:30:47;99316.66;;;12.25
70969;BMP280;58630;43.022;25.100;2023-03-04T10:33:16;99314.03;;;12.30
70969;BMP280;58630;43.022;25.100;2023-03-04T10:35:50;99310.34;;;12.36
70969;BMP280;58630;43.022;25.100;2023-03-04T10:38:18;99304.34;;;12.40
70969;BMP280;58630;43.022;25.100;2023-03-04T10:40:44;99298.28;;;12.44
70969;BMP280;58630;43.022;25.100;2023-03-04T10:43:19;99293.59;;;12.46
70969;BMP280;58630;43.022;25.100;2023-03-04T10:45:45;99291.50;;;12.48
70969;BMP280;58630;43.022;25.100;2023-03-04T10:48:21;99281.31;;;12.52
70969;BMP280;58630;43.022;25.100;2023-03-04T10:50:47;99286.47;;;12.57
70969;BMP280;58630;43.022;25.100;2023-03-04T10:58:51;99265.00;;;12.70
70969;BMP280;58630;43.022;25.100;2023-03-04T11:01:16;99263.44;;;12.74
70969;BMP280;58630;43.022;25.100;2023-03-04T11:03:49;99262.09;;;12.76
70969;BMP280;58630;43.022;25.100;2023-03-04T11:06:21;99256.63;;;12.78
70969;BMP280;58630;43.022;25.100;2023-03-04T11:08:59;99253.16;;;12.82
70969;BMP280;58630;43.022;25.100;2023-03-04T11:13:57;99236.44;;;12.88
70969;BMP280;58630;43.022;25.100;2023-03-04T11:16:24;99225.72;;;12.90
70969;BMP280;58630;43.022;25.100;2023-03-04T11:18:51;99224.09;;;12.99
70969;BMP280;58630;43.022;25.100;2023-03-04T11:21:23;99220.09;;;13.06
70969;BMP280;58630;43.022;25.100;2023-03-04T11:23:49;99215.88;;;13.10
70969;BMP280;58630;43.022;25.100;2023-03-04T11:26:18;99218.22;;;13.12
70969;BMP280;58630;43.022;25.100;2023-03-04T11:28:45;99210.09;;;13.13
70969;BMP280;58630;43.022;25.100;2023-03-04T11:31:26;99212.44;;;13.14
70969;BMP280;58630;43.022;25.100;2023-03-04T11:39:11;99202.34;;;13.31
70969;BMP280;58630;43.022;25.100;2023-03-04T11:41:38;99194.91;;;13.43
70969;BMP280;58630;43.022;25.100;2023-03-04T11:44:05;99192.34;;;13.62
70969;BMP280;58630;43.022;25.100;2023-03-04T11:56:47;99181.41;;;14.28
70969;BMP280;58630;43.022;25.100;2023-03-04T12:14:44;99166.00;;;14.99
70969;BMP280;58630;43.022;25.100;2023-03-04T12:27:33;99144.66;;;15.89
70969;BMP280;58630;43.022;25.100;2023-03-04T12:30:02;99142.25;;;16.23
70969;BMP280;58630;43.022;25.100;2023-03-04T12:37:46;99129.34;;;16.73
70969;BMP280;58630;43.022;25.100;2023-03-04T12:48:29;99119.25;;;16.58
70969;BMP280;58630;43.022;25.100;2023-03-04T12:51:06;99123.88;;;16.53
70969;BMP280;58630;43.022;25.100;2023-03-04T12:53:38;99117.03;;;16.35
70969;BMP280;58630;43.022;25.100;2023-03-04T12:56:08;99119.25;;;16.20
70969;BMP280;58630;43.022;25.100;2023-03-04T12:58:42;99116.84;;;16.01
70969;BMP280;58630;43.022;25.100;2023-03-04T13:14:24;99101.09;;;15.71
70969;BMP280;58630;43.022;25.100;2023-03-04T13:21:53;99090.81;;;16.05
70969;BMP280;58630;43.022;25.100;2023-03-04T13:27:42;99079.19;;;16.75
70969;BMP280;58630;43.022;25.100;2023-03-04T13:29:47;99084.03;;;17.06
70969;BMP280;58630;43.022;25.100;2023-03-04T13:32:13;99072.88;;;17.18
70969;BMP280;58630;43.022;25.100;2023-03-04T13:34:58;99068.56;;;17.47
70969;BMP280;58630;43.022;25.100;2023-03-04T13:42:38;99056.94;;;17.73
70969;BMP280;58630;43.022;25.100;2023-03-04T13:45:04;99051.84;;;17.51
70969;BMP280;58630;43.022;25.100;2023-03-04T13:47:39;99055.75;;;17.37
70969;BMP280;58630;43.022;25.100;2023-03-04T13:50:28;99043.84;;;17.23
70969;BMP280;58630;43.022;25.100;2023-03-04T13:52:53;99039.06;;;17.41
70969;BMP280;58630;43.022;25.100;2023-03-04T13:55:33;99033.13;;;17.78
70969;BMP280;58630;43.022;25.100;2023-03-04T13:57:59;99041.97;;;18.11
70969;BMP280;58630;43.022;25.100;2023-03-04T14:00:24;99025.75;;;18.09
70969;BMP280;58630;43.022;25.100;2023-03-04T14:02:51;99032.78;;;18.17
70969;BMP280;58630;43.022;25.100;2023-03-04T14:05:16;99035.41;;;18.25
70969;BMP280;58630;43.022;25.100;2023-03-04T14:07:41;99035.25;;;18.22
70969;BMP280;58630;43.022;25.100;2023-03-04T14:12:36;99022.09;;;18.22
70969;BMP280;58630;43.022;25.100;2023-03-04T14:15:05;99018.72;;;18.21
70969;BMP280;58630;43.022;25.100;2023-03-04T14:17:44;99016.00;;;18.09
70969;BMP280;58630;43.022;25.100;2023-03-04T14:22:48;99013.69;;;17.99
70969;BMP280;58630;43.022;25.100;2023-03-04T14:27:39;99009.66;;;18.02
70969;BMP280;58630;43.022;25.100;2023-03-04T14:30:05;99019.16;;;17.86
70969;BMP280;58630;43.022;25.100;2023-03-04T14:32:31;99018.28;;;17.74
70969;BMP280;58630;43.022;25.100;2023-03-04T14:34:58;99015.06;;;17.68
70969;BMP280;58630;43.022;25.100;2023-03-04T14:37:26;99014.53;;;17.83
70969;BMP280;58630;43.022;25.100;2023-03-04T14:39:57;99007.50;;;18.04
70969;BMP280;58630;43.022;25.100;2023-03-04T14:42:31;99011.50;;;18.10
70969;BMP280;58630;43.022;25.100;2023-03-04T14:44:59;99007.34;;;18.00
70969;BMP280;58630;43.022;25.100;2023-03-04T14:49:56;99005.69;;;17.96
70969;BMP280;58630;43.022;25.100;2023-03-04T14:52:25;99000.91;;;17.90
70969;BMP280;58630;43.022;25.100;2023-03-04T14:55:02;99011.00;;;17.79
70969;BMP280;58630;43.022;25.100;2023-03-04T14:57:32;99005.94;;;17.66
70969;BMP280;58630;43.022;25.100;2023-03-04T15:02:46;98998.59;;;17.42
70969;BMP280;58630;43.022;25.100;2023-03-04T15:05:19;98989.16;;;17.33
70969;BMP280;58630;43.022;25.100;2023-03-04T15:07:49;98993.38;;;17.26
70969;BMP280;58630;43.022;25.100;2023-03-04T15:10:18;98991.50;;;17.18
70969;BMP280;58630;43.022;25.100;2023-03-04T15:12:49;98991.69;;;17.13
70969;BMP280;58630;43.022;25.100;2023-03-04T15:17:59;98986.28;;;17.01
70969;BMP280;58630;43.022;25.100;2023-03-04T15:20:26;98986.44;;;16.96
70969;BMP280;58630;43.022;25.100;2023-03-04T15:25:17;98990.00;;;16.83
70969;BMP280;58630;43.022;25.100;2023-03-04T15:27:45;98983.38;;;16.77
70969;BMP280;58630;43.022;25.100;2023-03-04T15:32:42;98985.38;;;16.80
70969;BMP280;58630;43.022;25.100;2023-03-04T15:35:17;98979.69;;;16.78
70969;BMP280;58630;43.022;25.100;2023-03-04T15:37:42;98972.09;;;16.77
70969;BMP280;58630;43.022;25.100;2023-03-04T15:42:45;98969.63;;;16.72
70969;BMP280;58630;43.022;25.100;2023-03-04T15:45:24;98961.25;;;16.70
70969;BMP280;58630;43.022;25.100;2023-03-04T15:47:50;98967.94;;;16.67
70969;BMP280;58630;43.022;25.100;2023-03-04T15:50:16;98975.31;;;16.65
70969;BMP280;58630;43.022;25.100;2023-03-04T15:52:41;98969.16;;;16.61
70969;BMP280;58630;43.022;25.100;2023-03-04T15:55:09;98961.88;;;16.58
70969;BMP280;58630;43.022;25.100;2023-03-04T15:57:34;98966.97;;;16.55
70969;BMP280;58630;43.022;25.100;2023-03-04T15:59:59;98966.06;;;16.51
70969;BMP280;58630;43.022;25.100;2023-03-04T16:02:25;98965.91;;;16.47